Time;durP1;ratioP1;P1;durP2;ratioP2;P2;SDS_P1;SDS_P2;PMS_P1;PMS_P2;Temp;Humidity;BMP_temperature;BMP_pressure;BME280_temperature;BME280_humidity;BME280_pressure;Samples;Min_cycle;Max_cycle;Signal;HPM_P1;HPM_P2
2022/06/07 00:01:17;;;;;;;11.22;5.33;;;;;;;20.07;93.06;100095.63;2691707;87;21108;-89
2022/06/07 00:05:18;;;;;;;5.87;4.45;;;;;;;19.98;92.73;100103.02;2756625;85;21077;-88
2022/06/07 00:09:20;;;;;;;8.65;5.85;;;;;;;19.98;92.61;100102.17;2734460;85;21021;-89
2022/06/07 00:13:21;;;;;;;8.38;5.08;;;;;;;19.96;92.01;100100.18;2725901;86;21113;-89
2022/06/07 00:17:22;;;;;;;6.25;4.25;;;;;;;19.90;92.27;100099.58;2681122;87;21024;-90
2022/06/07 00:21:23;;;;;;;14.25;6.28;;;;;;;19.72;92.96;100104.89;2708368;86;21080;-90
2022/06/07 00:25:26;;;;;;;7.40;5.78;;;;;;;19.45;94.45;100105.91;2748083;86;21566;-89
2022/06/07 00:29:28;;;;;;;11.25;6.03;;;;;;;19.48;95.03;100102.01;2726679;85;21082;-89
2022/06/07 00:33:30;;;;;;;8.10;5.90;;;;;;;19.49;94.35;100100.98;2704490;87;21105;-89
2022/06/07 00:37:31;;;;;;;8.75;6.55;;;;;;;19.53;94.46;100103.12;2736473;86;21416;-90
2022/06/07 00:41:32;;;;;;;7.50;5.85;;;;;;;19.60;94.42;100106.40;2747555;85;21029;-89
2022/06/07 00:45:36;;;;;;;10.03;6.22;;;;;;;19.61;93.99;100095.93;2693664;85;21044;-89
2022/06/07 00:49:47;;;;;;;6.42;5.83;;;;;;;19.73;93.98;100086.82;2705362;86;21076;-89
2022/06/07 00:53:48;;;;;;;8.55;4.85;;;;;;;19.79;93.03;100087.42;2728109;85;21066;-89
2022/06/07 00:57:52;;;;;;;6.87;5.65;;;;;;;19.72;92.61;100087.35;2741126;85;21096;-89
2022/06/07 01:01:53;;;;;;;8.35;5.40;;;;;;;19.52;92.18;100081.22;2751656;85;21341;-89
2022/06/07 01:10:43;;;;;;;7.95;5.67;;;;;;;19.33;93.05;100082.64;2739931;86;21099;-89
2022/06/07 01:14:17;;;;;;;6.97;5.67;;;;;;;19.09;94.44;100071.14;2685308;87;21063;-89
2022/06/07 01:18:18;;;;;;;10.53;5.45;;;;;;;18.99;94.53;100067.91;2667287;87;21053;-89
2022/06/07 01:22:20;;;;;;;5.25;4.55;;;;;;;18.83;94.53;100064.84;2739470;85;21040;-89
2022/06/07 01:26:21;;;;;;;8.60;5.35;;;;;;;18.87;94.34;100064.83;2752342;85;21040;-89
2022/06/07 01:30:23;;;;;;;12.25;4.70;;;;;;;18.88;93.35;100065.14;2747752;85;21067;-89
2022/06/07 01:34:25;;;;;;;6.17;4.22;;;;;;;18.80;93.13;100060.69;2734822;86;21134;-89
2022/06/07 01:38:26;;;;;;;8.78;5.80;;;;;;;18.79;92.85;100053.63;2717567;86;21053;-88
2022/06/07 01:42:28;;;;;;;5.67;5.10;;;;;;;18.80;92.03;100046.36;2738773;85;21098;-89
2022/06/07 01:46:29;;;;;;;6.40;4.80;;;;;;;18.80;91.12;100045.02;2745423;86;21087;-89
2022/06/07 01:50:30;;;;;;;9.25;4.67;;;;;;;18.76;90.13;100043.72;2754159;85;21053;-87
2022/06/07 01:54:31;;;;;;;8.88;3.75;;;;;;;18.69;89.76;100036.88;2751440;86;21095;-86
2022/06/07 01:58:34;;;;;;;13.65;5.22;;;;;;;18.64;89.81;100042.00;2746996;86;21012;-89
2022/06/07 02:02:35;;;;;;;11.48;5.65;;;;;;;18.63;89.87;100046.53;2739642;85;21100;-90
2022/06/07 02:06:37;;;;;;;9.35;5.22;;;;;;;18.59;89.46;100046.58;2633143;88;21070;-89
2022/06/07 02:10:39;;;;;;;11.55;5.28;;;;;;;18.55;88.99;100044.76;2707503;87;21078;-89
2022/06/07 02:14:40;;;;;;;11.48;5.00;;;;;;;18.50;88.82;100036.93;2664634;87;21089;-88
2022/06/07 02:18:41;;;;;;;8.05;4.87;;;;;;;18.44;88.73;100037.15;2650160;89;21073;-89
2022/06/07 02:22:42;;;;;;;5.60;5.08;;;;;;;18.24;89.03;100039.02;2712116;86;21011;-90
2022/06/07 02:26:49;;;;;;;9.20;5.33;;;;;;;18.12;88.15;100036.42;2703746;86;21029;-89
2022/06/07 02:30:52;;;;;;;5.12;4.05;;;;;;;17.79;89.29;100017.32;2706132;86;21018;-89
2022/06/07 02:34:56;;;;;;;8.85;6.45;;;;;;;17.70;90.44;100007.13;2729479;86;21054;-89
2022/06/07 02:38:59;;;;;;;7.20;6.30;;;;;;;17.63;91.63;99995.92;2707851;87;21000;-88
2022/06/07 02:43:03;;;;;;;7.45;5.22;;;;;;;17.60;93.06;100007.04;2596076;90;21097;-89
2022/06/07 02:47:04;;;;;;;8.25;6.47;;;;;;;17.55;91.36;100010.25;2660995;88;21645;-89
2022/06/07 02:51:05;;;;;;;8.18;5.78;;;;;;;17.45;90.93;100006.45;2715621;86;21058;-89
2022/06/07 02:55:08;;;;;;;9.50;7.05;;;;;;;17.48;91.50;100010.13;2705972;86;21097;-88
2022/06/07 02:59:09;;;;;;;8.00;6.50;;;;;;;17.53;91.54;100015.83;2723853;86;21090;-89
2022/06/07 03:03:11;;;;;;;7.40;5.72;;;;;;;17.62;90.84;100017.11;2685984;86;21091;-91
2022/06/07 03:07:12;;;;;;;6.50;5.53;;;;;;;17.66;89.88;100016.58;2611051;89;21105;-89
2022/06/07 03:11:13;;;;;;;10.13;5.28;;;;;;;17.66;89.24;100010.34;2673882;87;21029;-91
2022/06/07 03:15:15;;;;;;;8.85;5.10;;;;;;;17.64;88.77;100017.77;2633575;87;21049;-90
2022/06/07 03:19:16;;;;;;;10.45;6.70;;;;;;;17.39;89.90;100017.44;2630339;89;21038;-89
2022/06/07 03:23:18;;;;;;;10.28;6.40;;;;;;;17.31;90.85;100020.67;2616936;89;21088;-89
2022/06/07 03:27:18;;;;;;;10.03;6.92;;;;;;;17.35;92.09;100005.86;2643765;88;21458;-88
2022/06/07 03:31:20;;;;;;;6.03;4.95;;;;;;;17.52;92.38;100007.44;2668270;88;21093;-89
2022/06/07 03:35:21;;;;;;;5.65;4.87;;;;;;;17.70;92.68;100014.38;2639694;88;21080;-90
2022/06/07 03:39:23;;;;;;;8.65;5.50;;;;;;;17.54;93.83;100013.96;2666302;88;21101;-89
2022/06/07 03:43:24;;;;;;;9.18;5.50;;;;;;;17.53;95.21;100008.25;2703922;86;21025;-90
2022/06/07 03:47:25;;;;;;;7.62;6.22;;;;;;;17.78;96.36;99998.66;2671308;87;21024;-90
2022/06/07 03:51:29;;;;;;;9.15;5.87;;;;;;;18.09;96.80;100001.80;2738455;86;21288;-87
2022/06/07 03:55:30;;;;;;;7.37;6.55;;;;;;;18.34;95.87;100012.33;2750018;85;21035;-90
2022/06/07 03:59:31;;;;;;;8.45;5.70;;;;;;;18.49;95.68;100011.84;2740253;85;21029;-88
2022/06/07 04:03:32;;;;;;;8.10;6.05;;;;;;;18.67;95.17;100014.19;2758897;85;21010;-85
2022/06/07 04:11:53;;;;;;;14.45;6.72;;;;;;;18.98;94.47;100009.11;2738712;86;21144;-90
2022/06/07 04:15:55;;;;;;;7.95;6.08;;;;;;;19.15;93.59;100007.56;2630352;87;21058;-89
2022/06/07 04:19:56;;;;;;;8.68;6.53;;;;;;;19.36;94.68;100009.97;2654255;88;21014;-88
2022/06/07 04:23:57;;;;;;;7.25;6.55;;;;;;;19.78;94.73;100014.25;2644321;88;21107;-89
2022/06/07 04:27:58;;;;;;;7.65;6.60;;;;;;;19.84;91.56;100007.53;2656517;88;21112;-90
2022/06/07 04:31:59;;;;;;;9.85;6.60;;;;;;;20.07;92.76;100003.84;2680848;87;21094;-89
2022/06/07 04:36:00;;;;;;;10.72;5.33;;;;;;;20.67;96.20;100008.81;2594922;89;21050;-90
2022/06/07 04:40:01;;;;;;;9.38;5.87;;;;;;;20.88;90.60;99996.27;2674410;86;21908;-89
2022/06/07 04:44:02;;;;;;;6.85;5.72;;;;;;;21.21;89.49;99996.89;2679769;88;21089;-88
2022/06/07 04:48:06;;;;;;;10.55;6.80;;;;;;;21.39;87.30;100003.09;2628719;87;21061;-88
2022/06/07 04:52:08;;;;;;;8.98;5.95;;;;;;;21.48;86.43;100004.25;2656194;88;21084;-88
2022/06/07 04:56:12;;;;;;;7.92;6.25;;;;;;;21.46;86.08;99992.30;2679223;87;21064;-87
2022/06/07 05:00:15;;;;;;;6.47;5.35;;;;;;;21.91;87.83;99989.05;2656949;88;21042;-89
2022/06/07 05:04:16;;;;;;;11.03;5.75;;;;;;;22.01;85.57;99992.70;2646827;88;21075;-89
2022/06/07 05:08:17;;;;;;;5.25;4.75;;;;;;;21.98;83.23;99986.31;2681704;87;21125;-89
2022/06/07 05:12:18;;;;;;;6.95;5.33;;;;;;;21.94;83.21;99985.92;2666633;88;21108;-90
2022/06/07 05:16:20;;;;;;;6.05;5.45;;;;;;;21.92;83.17;99989.87;2678254;88;21108;-90
2022/06/07 05:20:22;;;;;;;9.88;5.47;;;;;;;21.92;83.25;99994.78;2644186;88;21073;-89
2022/06/07 05:24:23;;;;;;;9.28;6.05;;;;;;;21.92;83.10;99989.87;2745096;85;21086;-87
2022/06/07 05:32:55;;;;;;;12.18;6.40;;;;;;;21.90;85.20;99995.48;3016145;77;23308;-88
2022/06/07 05:36:56;;;;;;;9.63;5.17;;;;;;;21.92;86.32;99999.34;2944872;78;21005;-87
2022/06/07 05:40:58;;;;;;;7.17;5.25;;;;;;;21.92;86.10;99997.48;2998623;77;20997;-88
2022/06/07 05:44:59;;;;;;;8.33;6.35;;;;;;;21.94;85.95;100003.52;2977295;78;21009;-88
2022/06/07 05:53:07;;;;;;;7.20;4.95;;;;;;;22.18;85.54;100005.28;2859063;83;21041;-89
2022/06/07 05:57:10;;;;;;;5.92;4.90;;;;;;;22.21;84.24;100014.88;2897815;81;21689;-86
2022/06/07 06:01:11;;;;;;;5.62;5.22;;;;;;;22.11;83.64;100016.11;2864285;81;20987;-84
2022/06/07 06:05:13;;;;;;;6.47;3.87;;;;;;;22.02;83.54;100007.91;2875608;81;20995;-89
2022/06/07 06:13:43;;;;;;;5.12;4.25;;;;;;;21.96;82.79;100004.14;2906021;80;21058;-89
2022/06/07 06:17:44;;;;;;;8.18;5.83;;;;;;;21.91;83.13;100010.71;2938931;80;21080;-90
2022/06/07 06:21:45;;;;;;;6.53;5.00;;;;;;;21.83;84.51;100015.80;2941786;79;21489;-89
2022/06/07 06:25:46;;;;;;;8.80;3.92;;;;;;;21.89;84.07;100014.66;2861423;79;21002;-87
2022/06/07 06:29:47;;;;;;;5.03;4.53;;;;;;;21.91;84.49;100020.19;2948720;78;21006;-87
2022/06/07 06:33:52;;;;;;;9.90;6.12;;;;;;;21.96;84.32;100030.37;2941417;79;21034;-88
2022/06/07 06:37:53;;;;;;;8.18;5.97;;;;;;;21.98;83.95;100024.23;2931943;80;20990;-89
2022/06/07 06:41:54;;;;;;;5.95;4.42;;;;;;;21.98;83.51;100018.81;2954713;79;20951;-89
2022/06/07 06:46:09;;;;;;;5.50;4.42;;;;;;;22.00;83.08;100020.78;2964620;78;21069;-88
2022/06/07 06:50:11;;;;;;;6.78;4.10;;;;;;;21.97;81.84;100023.41;2935399;80;20979;-88
2022/06/07 06:54:14;;;;;;;5.65;4.75;;;;;;;22.00;83.23;100030.27;2942167;79;21038;-86
2022/06/07 06:58:16;;;;;;;4.47;3.60;;;;;;;22.03;83.45;100029.88;2960232;80;21089;-89
2022/06/07 07:02:17;;;;;;;5.45;4.83;;;;;;;22.04;83.40;100026.13;2967417;78;21108;-89
2022/06/07 07:06:19;;;;;;;8.48;4.58;;;;;;;22.04;83.23;100030.19;2978972;79;21034;-90
2022/06/07 07:10:20;;;;;;;7.92;5.55;;;;;;;22.08;82.51;100032.78;2937480;80;21068;-89
2022/06/07 07:14:22;;;;;;;5.70;4.17;;;;;;;22.06;82.66;100032.16;2950834;80;20963;-89
2022/06/07 07:18:24;;;;;;;7.40;5.30;;;;;;;22.02;81.38;100034.98;2947137;79;21062;-89
2022/06/07 07:22:25;;;;;;;5.65;4.65;;;;;;;22.03;81.58;100047.48;2943167;79;21011;-89
2022/06/07 07:26:29;;;;;;;7.12;4.97;;;;;;;22.06;82.10;100045.70;2943703;80;21003;-89
2022/06/07 07:30:30;;;;;;;4.15;3.65;;;;;;;22.03;81.62;100047.98;2938908;79;21011;-88
2022/06/07 07:34:31;;;;;;;6.33;4.33;;;;;;;22.05;80.32;100049.45;2938678;79;21632;-89
2022/06/07 07:38:34;;;;;;;4.85;3.80;;;;;;;22.07;80.11;100043.30;2946840;78;21117;-87
2022/06/07 07:42:35;;;;;;;5.35;3.90;;;;;;;22.14;81.20;100044.66;2968614;78;21563;-89
2022/06/07 07:46:38;;;;;;;6.78;4.70;;;;;;;22.19;81.47;100050.79;2922046;80;21022;-89
2022/06/07 07:50:40;;;;;;;4.95;4.12;;;;;;;22.31;81.71;100052.38;2934675;79;21053;-89
2022/06/07 07:54:42;;;;;;;5.25;4.03;;;;;;;22.38;81.14;100049.13;2973470;79;21541;-89
2022/06/07 07:58:44;;;;;;;5.87;3.65;;;;;;;22.42;79.39;100045.49;2982154;78;21030;-88
2022/06/07 08:02:45;;;;;;;3.45;2.95;;;;;;;22.53;78.26;100048.42;2938526;79;20994;-84
2022/06/07 08:06:46;;;;;;;4.90;3.58;;;;;;;22.59;78.87;100044.55;2941830;79;21723;-87
2022/06/07 08:10:48;;;;;;;10.60;3.30;;;;;;;22.61;78.25;100051.44;2963543;79;20987;-89
2022/06/07 08:14:49;;;;;;;5.87;3.60;;;;;;;22.60;75.98;100045.70;2942341;79;21120;-89
2022/06/07 08:18:50;;;;;;;5.58;2.98;;;;;;;22.54;73.97;100047.37;2940679;79;20963;-89
2022/06/07 08:22:52;;;;;;;6.12;4.12;;;;;;;22.54;74.76;100038.39;2958731;78;21026;-85
2022/06/07 08:26:53;;;;;;;7.15;2.37;;;;;;;22.68;75.65;100040.05;2949966;78;21547;-88
2022/06/07 08:30:54;;;;;;;3.37;2.77;;;;;;;22.81;73.55;100036.46;2929977;78;21050;-89
2022/06/07 08:39:16;;;;;;;5.05;2.05;;;;;;;23.36;69.38;100030.32;2947668;80;21015;-89
2022/06/07 08:43:25;;;;;;;5.40;2.12;;;;;;;23.70;66.83;100022.81;2927904;80;21062;-90
2022/06/07 08:47:43;;;;;;;6.10;2.22;;;;;;;24.06;65.59;100019.97;2947959;79;21081;-85
2022/06/07 08:51:56;;;;;;;4.17;2.72;;;;;;;24.38;61.23;100019.91;2950739;79;21007;-88
2022/06/07 08:56:01;;;;;;;2.60;1.75;;;;;;;24.76;60.65;100013.14;2979853;79;20995;-89
2022/06/07 09:00:19;;;;;;;5.08;2.65;;;;;;;24.95;61.07;100022.95;2935273;79;21390;-87
2022/06/07 09:04:29;;;;;;;3.12;2.12;;;;;;;24.95;59.68;100020.78;2961444;79;21478;-90
2022/06/07 09:08:42;;;;;;;3.20;1.95;;;;;;;24.89;60.02;100019.80;2954981;79;21007;-88
2022/06/07 09:13:01;;;;;;;2.92;2.33;;;;;;;24.75;58.59;100020.48;2970194;79;21027;-89
2022/06/07 09:17:07;;;;;;;4.30;2.00;;;;;;;24.72;59.21;100019.55;2888239;81;20999;-88
2022/06/07 09:21:16;;;;;;;3.05;1.65;;;;;;;24.78;58.28;100019.21;2902139;81;21348;-88
2022/06/07 09:25:38;;;;;;;3.65;1.75;;;;;;;24.82;58.13;100016.33;2878424;80;21027;-88
2022/06/07 09:29:41;;;;;;;1.62;1.50;;;;;;;24.81;59.09;100018.75;2854955;83;21049;-89
2022/06/07 09:33:57;;;;;;;7.58;2.33;;;;;;;24.74;57.00;100018.79;2840619;82;21027;-89
2022/06/07 09:38:05;;;;;;;2.20;1.72;;;;;;;24.83;57.55;100013.91;2838492;83;21032;-88
2022/06/07 09:42:23;;;;;;;4.15;2.70;;;;;;;24.94;56.79;100014.49;2843749;82;21058;-89
2022/06/07 09:46:28;;;;;;;6.55;2.55;;;;;;;24.92;56.91;100017.98;2831315;83;21047;-89
2022/06/07 09:50:37;;;;;;;5.92;4.25;;;;;;;24.93;56.02;100001.14;2799406;82;21035;-89
2022/06/07 09:54:45;;;;;;;3.25;1.98;;;;;;;24.96;58.26;100002.03;2806575;82;21034;-88
2022/06/07 09:59:30;;;;;;;9.55;2.90;;;;;;;25.07;56.76;99986.83;2797797;82;21035;-89
2022/06/07 10:03:58;;;;;;;2.45;2.22;;;;;;;25.10;55.25;99980.92;2803044;84;21079;-88
2022/06/07 10:08:36;;;;;;;4.67;3.33;;;;;;;25.09;54.77;99976.03;2932934;80;21010;-89
2022/06/07 10:12:45;;;;;;;3.55;2.72;;;;;;;25.05;57.19;99976.70;2940590;79;21026;-89
2022/06/07 10:17:16;;;;;;;5.28;4.45;;;;;;;24.96;58.36;99989.80;2964470;80;20998;-88
2022/06/07 10:22:23;;;;;;;11.60;4.37;;;;;;;24.86;61.09;99982.69;2931648;80;21027;-89
2022/06/07 10:26:41;;;;;;;5.20;3.80;;;;;;;24.86;63.14;99982.69;2956466;79;21109;-90
2022/06/07 10:31:08;;;;;;;4.85;3.33;;;;;;;24.71;62.88;99981.69;2956214;79;21093;-88
2022/06/07 10:35:39;;;;;;;10.08;3.20;;;;;;;24.58;66.21;99980.80;2945826;80;21020;-88
2022/06/07 10:39:50;;;;;;;7.28;3.27;;;;;;;24.43;65.70;99977.08;2958795;80;20987;-88
2022/06/07 10:43:58;;;;;;;;;;;;;;;24.36;66.46;99979.86;2946013;80;21277;-84
2022/06/07 10:48:29;;;;;;;5.22;4.37;;;;;;;24.07;67.84;99975.45;2941284;80;20123;-88
2022/06/07 10:52:51;;;;;;;7.92;4.22;;;;;;;23.79;68.99;99971.28;2944159;79;21475;-87
2022/06/07 10:57:27;;;;;;;12.73;3.20;;;;;;;23.46;70.08;99972.86;2974615;79;20999;-86
2022/06/07 11:01:52;;;;;;;4.53;2.90;;;;;;;23.19;69.51;99968.41;2943396;79;20998;-87
2022/06/07 11:10:35;;;;;;;5.05;2.25;;;;;;;22.84;70.49;99976.92;2845456;81;21028;-88
2022/06/07 11:14:58;;;;;;;3.15;2.37;;;;;;;22.55;71.63;99962.82;2841482;81;21050;-89
2022/06/07 11:19:03;;;;;;;5.50;3.12;;;;;;;22.43;71.61;99965.33;2829008;82;21026;-87
2022/06/07 11:23:19;;;;;;;3.35;3.05;;;;;;;22.46;72.37;99971.67;2812748;81;21745;-89
2022/06/07 11:27:23;;;;;;;3.10;2.80;;;;;;;22.49;72.28;99971.27;2815402;82;21054;-87
2022/06/07 11:31:39;;;;;;;3.75;2.95;;;;;;;22.38;72.70;99971.91;2835397;81;21027;-88
2022/06/07 11:35:55;;;;;;;3.80;2.47;;;;;;;22.30;74.65;99975.67;2845727;81;21072;-88
2022/06/07 11:39:57;;;;;;;6.20;4.85;;;;;;;22.31;75.45;99972.45;2818800;82;21685;-87
2022/06/07 11:44:00;;;;;;;6.58;4.90;;;;;;;;;;2849175;80;21003;-89
2022/06/07 11:48:23;;;;;;;8.00;4.42;;;;;;;21.91;78.82;99996.33;2973365;78;21022;-88
2022/06/07 11:52:29;;;;;;;5.42;3.40;;;;;;;21.68;80.17;100007.85;2957925;79;21026;-88
2022/06/07 11:56:46;;;;;;;4.78;4.00;;;;;;;21.54;83.82;100007.51;2954180;79;21121;-88
2022/06/07 12:00:49;;;;;;;13.30;6.65;;;;;;;21.57;85.24;100018.42;2948481;78;21109;-89
2022/06/07 12:05:11;;;;;;;4.08;3.17;;;;;;;21.66;85.89;100013.99;2947266;79;20998;-88
2022/06/07 12:09:16;;;;;;;4.30;3.62;;;;;;;21.65;85.03;100023.16;2949147;78;20990;-89
2022/06/07 12:13:49;;;;;;;3.45;3.15;;;;;;;21.55;85.06;100026.23;2967812;78;21648;-88
2022/06/07 12:17:31;;;;;;;5.08;3.60;;;;;;;21.45;85.92;100027.66;2967111;79;21108;-88
2022/06/07 12:21:43;;;;;;;3.62;3.33;;;;;;;21.41;87.50;100040.75;2931524;78;21121;-84
2022/06/07 12:26:01;;;;;;;7.35;3.37;;;;;;;21.39;87.27;100052.30;2979889;78;21524;-88
2022/06/07 12:30:27;;;;;;;3.10;2.75;;;;;;;21.36;88.06;100055.41;2956490;79;21581;-88
2022/06/07 12:34:35;;;;;;;4.87;3.50;;;;;;;21.29;88.35;100041.04;2966262;79;21002;-87
2022/06/07 12:38:36;;;;;;;3.25;2.80;;;;;;;21.34;89.07;100034.50;2961588;78;20970;-88
2022/06/07 12:42:43;;;;;;;3.25;2.95;;;;;;;21.39;89.16;100036.91;2954951;79;20982;-88
2022/06/07 12:46:46;;;;;;;3.12;2.83;;;;;;;21.50;89.22;100036.84;2971797;79;21049;-88
2022/06/07 12:50:48;;;;;;;5.15;3.52;;;;;;;21.54;87.47;100034.56;2961684;78;21042;-88
2022/06/07 12:55:01;;;;;;;5.28;3.62;;;;;;;21.61;87.61;100034.55;2921215;79;21043;-88
2022/06/07 12:59:07;;;;;;;5.10;3.70;;;;;;;21.76;88.28;100040.66;2914870;80;21027;-87
2022/06/07 13:03:28;;;;;;;6.12;3.33;;;;;;;21.74;88.84;100037.86;2937144;79;21003;-87
2022/06/07 13:07:34;;;;;;;7.22;3.95;;;;;;;21.81;88.79;100032.78;2923383;79;21070;-89
2022/06/07 13:11:38;;;;;;;2.20;2.00;;;;;;;21.86;88.95;100030.78;2868279;80;21027;-89
2022/06/07 13:16:01;;;;;;;2.95;2.60;;;;;;;21.90;87.65;100023.91;2935404;79;21058;-89
2022/06/07 13:20:08;;;;;;;6.25;3.33;;;;;;;21.85;88.21;100018.83;2939227;79;20972;-90
2022/06/07 13:24:23;;;;;;;3.30;3.00;;;;;;;21.93;89.35;100015.90;2926615;79;21011;-84
2022/06/07 13:28:25;;;;;;;4.78;3.17;;;;;;;21.99;90.67;100011.00;2897703;80;21003;-88
2022/06/07 13:32:28;;;;;;;6.85;4.35;;;;;;;22.04;91.15;100012.58;2932326;79;21129;-88
2022/06/07 13:36:40;;;;;;;10.10;3.62;;;;;;;22.14;91.56;100016.73;2917325;79;21007;-85
2022/06/07 13:40:41;;;;;;;4.33;3.92;;;;;;;22.20;89.80;100013.18;2912896;79;21011;-84
2022/06/07 13:45:15;;;;;;;7.40;3.45;;;;;;;22.06;89.66;100009.65;2948546;79;20979;-85
2022/06/07 13:53:51;;;;;;;4.67;3.62;;;;;;;22.05;87.80;100006.13;2947980;79;21015;-86
2022/06/07 13:57:52;;;;;;;5.53;4.60;;;;;;;21.93;89.55;100007.27;2930487;78;21024;-88
2022/06/07 14:01:53;;;;;;;4.70;4.20;;;;;;;21.71;90.75;100007.97;2952246;80;21018;-89
2022/06/07 14:05:54;;;;;;;4.95;4.17;;;;;;;21.62;91.52;100000.53;2882362;78;21014;-88
2022/06/07 14:09:56;;;;;;;6.53;4.33;;;;;;;21.53;91.37;99999.89;2899413;79;21067;-87
2022/06/07 14:13:59;;;;;;;5.22;4.08;;;;;;;21.61;90.56;100004.79;2841151;81;21660;-89
2022/06/07 14:18:02;;;;;;;4.20;3.90;;;;;;;21.53;91.06;100003.95;2902812;80;21580;-88
2022/06/07 14:22:26;;;;;;;3.92;3.62;;;;;;;21.59;90.78;99994.69;2884470;81;21309;-85
2022/06/07 14:26:28;;;;;;;4.37;3.62;;;;;;;21.71;90.65;99989.02;2888505;81;21018;-88
2022/06/07 14:30:29;;;;;;;3.87;3.37;;;;;;;21.74;89.99;99987.79;2880989;81;21026;-85
2022/06/07 14:34:31;;;;;;;3.70;3.40;;;;;;;21.74;89.80;99989.14;2887801;82;20999;-87
2022/06/07 14:38:33;;;;;;;3.47;3.17;;;;;;;21.68;91.08;99987.55;2829003;81;21014;-85
2022/06/07 14:42:35;;;;;;;4.65;3.67;;;;;;;21.55;91.52;99986.98;2861151;81;21062;-86
2022/06/07 14:46:37;;;;;;;4.30;3.65;;;;;;;21.63;91.11;99965.67;2897941;81;21033;-84
2022/06/07 14:50:38;;;;;;;3.08;2.72;;;;;;;21.84;89.40;99951.65;2823590;81;21457;-84
2022/06/07 14:54:40;;;;;;;3.75;3.45;;;;;;;22.00;87.75;99952.27;2881685;82;20983;-85
2022/06/07 14:58:43;;;;;;;3.50;3.12;;;;;;;22.06;87.83;99952.27;2820896;83;21065;-85
2022/06/07 15:02:49;;;;;;;5.78;2.52;;;;;;;22.21;87.04;99949.86;2880473;82;20972;-87
2022/06/07 15:06:51;;;;;;;4.70;2.80;;;;;;;22.38;85.00;99940.21;2850474;81;21048;-87
2022/06/07 15:10:52;;;;;;;3.22;3.02;;;;;;;22.32;83.19;99932.94;2854706;82;21039;-84
2022/06/07 15:14:54;;;;;;;4.90;3.10;;;;;;;22.42;85.14;99935.75;2867166;81;21019;-87
2022/06/07 15:18:56;;;;;;;3.98;3.52;;;;;;;22.55;84.61;99935.72;2889162;81;21046;-85
2022/06/07 15:23:01;;;;;;;4.15;3.75;;;;;;;22.50;83.96;99928.76;2889108;80;20988;-87
2022/06/07 15:27:05;;;;;;;3.40;3.10;;;;;;;22.52;84.62;99930.73;2883885;80;21071;-87
2022/06/07 15:31:06;;;;;;;4.03;2.65;;;;;;;22.57;84.80;99930.09;2890217;80;20980;-87
2022/06/07 15:35:21;;;;;;;4.53;3.52;;;;;;;22.57;82.83;99926.84;2886454;81;20999;-88
2022/06/07 15:39:24;;;;;;;3.35;3.12;;;;;;;22.55;83.16;99918.10;2866847;82;21014;-89
2022/06/07 15:43:29;;;;;;;4.70;3.90;;;;;;;22.50;83.93;99916.06;2835898;82;21591;-88
2022/06/07 15:47:30;;;;;;;5.70;3.40;;;;;;;22.50;83.05;99911.99;2856916;81;21550;-84
2022/06/07 15:51:33;;;;;;;4.37;3.98;;;;;;;22.44;83.63;99906.56;2889470;81;21082;-86
2022/06/07 15:55:35;;;;;;;4.65;3.90;;;;;;;22.35;84.36;99904.06;2889643;81;21059;-87
2022/06/07 15:59:36;;;;;;;3.67;3.37;;;;;;;22.21;84.86;99905.17;2885394;82;21019;-88
2022/06/07 16:03:38;;;;;;;5.58;3.42;;;;;;;22.24;84.96;99900.67;2878911;82;20986;-86
2022/06/07 16:07:39;;;;;;;4.58;3.27;;;;;;;22.14;85.21;99893.50;2863207;82;21031;-88
2022/06/07 16:11:41;;;;;;;6.62;4.72;;;;;;;22.12;85.26;99895.08;2870078;82;21019;-85
2022/06/07 16:15:44;;;;;;;5.45;3.83;;;;;;;21.97;86.07;99892.59;2873947;81;21041;-86
2022/06/07 16:19:45;;;;;;;5.05;3.10;;;;;;;21.80;86.89;99897.62;2885471;82;21046;-89
2022/06/07 16:23:47;;;;;;;5.03;3.40;;;;;;;21.77;88.52;99896.69;2871612;82;20991;-87
2022/06/07 16:36:31;;;;;;;4.92;4.47;;;;;;;21.86;89.12;99902.72;2878620;82;20999;-87
2022/06/07 16:40:33;;;;;;;4.33;3.90;;;;;;;21.91;89.11;99905.12;2852371;82;21071;-86
2022/06/07 16:44:35;;;;;;;5.50;4.20;;;;;;;21.86;87.88;99910.84;2896276;81;21100;-87
2022/06/07 16:53:07;;;;;;;10.08;4.60;;;;;;;21.74;87.93;99920.94;2948973;78;72279;-83
2022/06/07 16:57:08;;;;;;;5.50;3.95;;;;;;;21.64;88.68;99911.84;2897324;79;21047;-82
2022/06/07 17:01:15;;;;;;;6.90;4.80;;;;;;;21.64;89.09;99919.16;2944493;77;20983;-82
2022/06/07 17:05:16;;;;;;;9.25;4.97;;;;;;;21.63;90.05;99916.95;3025313;77;20970;-83
2022/06/07 17:09:19;;;;;;;5.33;3.80;;;;;;;21.73;89.09;99913.86;2966110;77;21009;-83
2022/06/07 17:13:22;;;;;;;4.80;4.00;;;;;;;21.80;88.71;99917.38;3023898;76;21021;-83
2022/06/07 17:17:25;;;;;;;5.00;3.00;;;;;;;21.86;88.27;99918.97;2978361;77;20973;-83
2022/06/07 17:21:26;;;;;;;4.53;2.37;;;;;;;21.75;87.84;99919.08;3019466;76;20994;-83
2022/06/07 17:25:28;;;;;;;3.77;2.62;;;;;;;21.61;86.88;99920.39;3045579;75;20974;-82
2022/06/07 17:29:29;;;;;;;2.58;1.35;;;;;;;21.36;87.27;99916.95;3018291;76;20977;-84
2022/06/07 17:33:31;;;;;;;4.30;2.17;;;;;;;21.26;87.58;99913.80;2989819;77;21016;-83
2022/06/07 17:37:32;;;;;;;2.37;1.40;;;;;;;21.20;87.49;99918.68;2995259;77;21009;-82
2022/06/07 17:41:34;;;;;;;3.15;1.90;;;;;;;21.24;87.77;99915.37;3005307;77;21727;-83
2022/06/07 17:45:36;;;;;;;2.80;1.75;;;;;;;21.26;87.94;99917.84;2906055;78;22225;-83
2022/06/07 17:49:37;;;;;;;2.33;2.08;;;;;;;21.22;89.11;99917.45;3005273;77;21025;-83
2022/06/07 17:53:39;;;;;;;3.50;2.17;;;;;;;21.30;89.61;99916.93;2959015;77;21064;-83
2022/06/07 17:57:40;;;;;;;3.95;3.40;;;;;;;21.37;89.04;99917.25;2999815;78;20993;-83
2022/06/07 18:01:44;;;;;;;26.95;15.98;;;;;;;21.45;87.99;99914.03;3024745;77;20969;-83
2022/06/07 18:05:46;;;;;;;12.13;8.73;;;;;;;21.37;87.86;99909.64;2998517;77;21021;-84
2022/06/07 18:09:48;;;;;;;17.65;13.38;;;;;;;21.22;89.20;99912.04;2981095;77;21582;-83
2022/06/07 18:13:49;;;;;;;11.60;8.50;;;;;;;21.23;90.02;99919.11;2975878;77;21072;-91
2022/06/07 18:17:50;;;;;;;6.30;4.67;;;;;;;21.30;90.22;99926.39;3014483;77;20985;-81
2022/06/07 18:21:52;;;;;;;8.35;4.83;;;;;;;21.35;89.94;99925.25;2985100;76;20993;-83
2022/06/07 18:25:54;;;;;;;7.10;4.15;;;;;;;21.23;90.42;99928.58;3011266;77;20997;-90
2022/06/07 18:29:55;;;;;;;5.25;3.15;;;;;;;21.23;90.21;99935.34;3025997;76;20966;-84
2022/06/07 18:33:56;;;;;;;8.65;3.70;;;;;;;21.13;89.81;99921.36;3025399;77;20985;-83
2022/06/07 18:37:59;;;;;;;3.87;3.12;;;;;;;21.09;90.30;99924.17;3018247;77;21021;-83
2022/06/07 18:42:01;;;;;;;6.90;3.80;;;;;;;21.11;90.16;99927.50;2920119;78;21247;-84
2022/06/07 18:46:02;;;;;;;8.58;3.67;;;;;;;21.20;89.92;99928.14;3023672;77;20997;-83
2022/06/07 18:50:05;;;;;;;5.28;3.98;;;;;;;21.20;89.18;99929.50;2959074;77;20982;-83
2022/06/07 18:54:10;;;;;;;6.28;3.30;;;;;;;21.18;88.98;99932.93;2939895;78;21023;-85
2022/06/07 18:58:11;;;;;;;12.03;4.87;;;;;;;21.11;88.42;99935.61;2897612;79;21012;-86
2022/06/07 19:02:18;;;;;;;7.97;3.52;;;;;;;21.00;88.76;99932.14;2924124;81;21007;-83
2022/06/07 19:06:21;;;;;;;4.12;3.10;;;;;;;20.95;89.15;99926.01;2951756;79;20986;-84
2022/06/07 19:10:24;;;;;;;3.15;2.65;;;;;;;20.96;89.58;99933.90;2919375;80;21058;-84
2022/06/07 19:14:26;;;;;;;5.92;2.80;;;;;;;20.90;88.92;99933.37;2942980;79;21030;-84
2022/06/07 19:18:27;;;;;;;10.45;5.03;;;;;;;20.82;89.25;99935.73;2934759;80;21840;-83
2022/06/07 19:22:28;;;;;;;8.45;6.30;;;;;;;20.75;89.79;99936.20;2879469;77;20982;-82
2022/06/07 19:26:31;;;;;;;8.03;4.90;;;;;;;20.57;90.43;99929.97;2935477;79;20986;-85
2022/06/07 19:30:33;;;;;;;11.03;6.92;;;;;;;20.43;91.11;99930.42;2922301;79;21560;-83
2022/06/07 19:34:34;;;;;;;11.45;9.38;;;;;;;20.33;91.17;99931.29;2937330;79;21017;-83
2022/06/07 19:38:36;;;;;;;10.90;6.70;;;;;;;20.17;90.61;99933.80;2944502;80;21026;-83
2022/06/07 19:42:38;;;;;;;7.22;5.37;;;;;;;20.07;90.79;99933.64;2913984;79;21117;-84
2022/06/07 19:46:39;;;;;;;6.10;5.03;;;;;;;20.09;90.44;99934.28;2947355;80;21148;-84
2022/06/07 19:50:46;;;;;;;5.62;5.00;;;;;;;20.14;90.26;99934.20;2940842;79;21042;-84
2022/06/07 19:54:48;;;;;;;9.80;5.53;;;;;;;20.16;90.21;99932.13;2937190;79;21042;-83